Time;durP1;ratioP1;P1;durP2;ratioP2;P2;SDS_P1;SDS_P2;PMS_P1;PMS_P2;Temp;Humidity;BMP_temperature;BMP_pressure;BME280_temperature;BME280_humidity;BME280_pressure;Samples;Min_cycle;Max_cycle;Signal;HPM_P1;HPM_P2
2022/03/10 10:11:32;;;;;;;30.47;27.90;;;21.40;38.90;;;;;;5063771;28;20583;-76
2022/03/10 10:13:59;;;;;;;31.17;28.40;;;24.40;33.80;;;;;;5064233;28;20444;-77
2022/03/10 10:16:26;;;;;;;30.20;27.43;;;25.10;33.20;;;;;;5063635;28;20451;-77
2022/03/10 10:18:57;;;;;;;26.17;23.77;;;24.30;32.50;;;;;;5063515;28;20444;-77
2022/03/10 10:21:25;;;;;;;26.87;24.27;;;25.30;32.50;;;;;;5063785;28;20903;-77
2022/03/10 10:23:53;;;;;;;28.60;26.17;;;26.80;30.60;;;;;;5063722;28;20451;-77
2022/03/10 10:26:26;;;;;;;25.20;23.07;;;25.30;31.00;;;;;;5063628;28;20785;-77
2022/03/10 10:28:54;;;;;;;27.37;25.20;;;25.80;30.20;;;;;;5063652;28;20874;-78
2022/03/10 10:31:22;;;;;;;26.20;24.20;;;25.50;30.60;;;;;;5063652;28;20444;-77
2022/03/10 10:34:00;;;;;;;28.03;25.63;;;25.80;30.00;;;;;;5063204;28;20455;-78
2022/03/10 10:36:28;;;;;;;26.30;24.20;;;26.00;29.70;;;;;;5063326;28;20934;-78
2022/03/10 10:38:59;;;;;;;22.30;20.80;;;26.10;30.30;;;;;;5063481;28;20456;-77
2022/03/10 10:41:28;;;;;;;22.40;20.80;;;25.90;29.80;;;;;;5063340;28;20954;-78
2022/03/10 10:43:58;;;;;;;25.47;22.97;;;24.80;30.00;;;;;;5063373;28;20827;-77
2022/03/10 10:46:36;;;;;;;22.30;20.90;;;22.40;32.10;;;;;;5063439;28;20456;-77
2022/03/10 10:49:05;;;;;;;19.37;17.97;;;22.80;32.80;;;;;;5063249;28;20487;-77
2022/03/10 10:51:37;;;;;;;24.43;18.90;;;22.40;31.90;;;;;;5063363;28;20452;-77
2022/03/10 10:54:06;;;;;;;20.97;19.40;;;22.20;31.90;;;;;;5063320;28;20451;-77
2022/03/10 10:56:34;;;;;;;15.77;14.90;;;21.30;32.50;;;;;;5063181;28;20475;-76
2022/03/10 10:59:03;;;;;;;14.57;13.50;;;20.10;32.70;;;;;;5063520;28;20455;-77
2022/03/10 11:01:35;;;;;;;13.10;12.40;;;19.50;32.70;;;;;;5063346;28;20476;-77
2022/03/10 11:04:04;;;;;;;13.00;12.10;;;18.40;32.70;;;;;;5063258;28;20846;-77
2022/03/10 11:06:32;;;;;;;14.20;13.00;;;17.80;34.00;;;;;;5063250;28;21020;-77
2022/03/10 11:08:58;;;;;;;14.87;13.80;;;17.70;34.80;;;;;;5062544;28;20461;-77
2022/03/10 11:11:26;;;;;;;13.60;12.90;;;17.70;34.50;;;;;;5054569;28;20471;-77
2022/03/10 11:13:53;;;;;;;14.10;13.30;;;17.60;34.90;;;;;;5049526;28;20469;-76
2022/03/10 11:16:21;;;;;;;14.47;13.57;;;17.50;34.60;;;;;;5042617;28;20469;-77
2022/03/10 11:18:50;;;;;;;14.37;13.57;;;18.10;34.50;;;;;;5029798;28;20459;-77
2022/03/10 11:21:59;;;;;;;13.47;12.80;;;18.00;34.20;;;;;;5029625;28;20481;-78
2022/03/10 11:24:39;;;;;;;13.50;12.70;;;18.00;34.80;;;;;;4987621;28;20446;-76
2022/03/10 11:27:11;;;;;;;13.20;12.50;;;18.60;34.10;;;;;;4987507;28;20555;-76
2022/03/10 11:29:39;;;;;;;13.33;12.73;;;17.80;33.90;;;;;;5011142;28;20643;-76
2022/03/10 11:32:10;;;;;;;11.93;11.33;;;17.40;34.60;;;;;;5029316;28;20467;-76
2022/03/10 11:34:52;;;;;;;12.70;12.10;;;17.10;34.50;;;;;;5029249;28;20463;-76
2022/03/10 11:37:51;;;;;;;13.00;12.30;;;17.10;35.00;;;;;;5029242;28;20458;-77
2022/03/10 11:40:20;;;;;;;13.60;12.60;;;17.50;34.70;;;;;;5029509;28;20499;-76
2022/03/10 11:42:59;;;;;;;12.90;12.30;;;17.40;34.80;;;;;;5029699;28;20805;-77
2022/03/10 11:45:31;;;;;;;13.80;12.93;;;17.70;35.00;;;;;;5029300;28;20490;-76
2022/03/10 11:48:35;;;;;;;13.20;12.40;;;17.90;34.60;;;;;;5029249;28;20861;-77
2022/03/10 11:51:19;;;;;;;13.07;12.37;;;18.40;34.30;;;;;;5029222;28;20487;-76
2022/03/10 11:53:57;;;;;;;13.37;12.67;;;18.40;33.80;;;;;;5029433;28;20876;-77
2022/03/10 11:56:50;;;;;;;13.20;12.50;;;18.30;33.60;;;;;;5029031;28;20463;-76
2022/03/10 11:59:18;;;;;;;11.57;11.00;;;18.30;33.50;;;;;;5028912;28;20456;-76
2022/03/10 12:01:44;;;;;;;11.20;10.70;;;18.00;32.40;;;;;;5029198;28;20478;-76
2022/03/10 12:04:16;;;;;;;12.20;11.60;;;17.80;32.60;;;;;;5028998;28;20462;-75
2022/03/10 12:06:50;;;;;;;12.47;11.77;;;18.30;32.90;;;;;;5028938;28;20492;-75
2022/03/10 12:09:28;;;;;;;12.77;12.10;;;18.60;32.80;;;;;;5029109;28;20621;-75
2022/03/10 12:11:55;;;;;;;13.33;12.53;;;19.30;32.20;;;;;;5028797;28;20502;-76
2022/03/10 12:14:26;;;;;;;12.63;12.03;;;18.80;32.30;;;;;;5028815;28;20703;-76
2022/03/10 12:16:52;;;;;;;12.20;11.57;;;19.10;31.40;;;;;;5028725;28;20970;-76
2022/03/10 12:19:48;;;;;;;13.97;13.17;;;18.70;31.00;;;;;;5028562;28;20460;-76
2022/03/10 12:22:28;;;;;;;12.37;11.77;;;18.30;31.10;;;;;;5027796;28;20930;-76
2022/03/10 12:25:17;;;;;;;12.33;11.63;;;18.60;33.00;;;;;;5028419;28;20453;-76
2022/03/10 12:27:49;;;;;;;12.33;11.70;;;19.30;32.00;;;;;;5028722;28;20457;-76
2022/03/10 12:30:17;;;;;;;13.40;12.70;;;19.20;31.80;;;;;;5028752;28;20492;-76
2022/03/10 12:32:45;;;;;;;13.50;12.80;;;19.20;31.60;;;;;;5025358;28;20454;-77
2022/03/10 12:35:14;;;;;;;13.40;12.60;;;19.60;31.60;;;;;;5027385;28;20489;-76
2022/03/10 12:37:47;;;;;;;13.40;12.40;;;19.20;31.50;;;;;;5028594;28;20472;-76
2022/03/10 12:40:18;;;;;;;12.83;12.23;;;19.60;31.40;;;;;;5028711;28;20492;-77
2022/03/10 12:42:46;;;;;;;14.07;12.97;;;19.20;29.20;;;;;;5028815;28;20935;-77
2022/03/10 12:45:12;;;;;;;13.53;12.73;;;18.20;30.00;;;;;;5028349;28;20449;-76
2022/03/10 12:47:45;;;;;;;14.50;13.60;;;18.10;30.90;;;;;;5028198;28;20451;-77
2022/03/10 12:50:13;;;;;;;13.30;12.70;;;18.80;31.50;;;;;;5028351;28;20499;-76
2022/03/10 12:52:41;;;;;;;13.50;12.80;;;18.80;30.30;;;;;;5028212;28;20449;-77
2022/03/10 12:55:10;;;;;;;14.87;14.07;;;19.10;30.00;;;;;;5028210;28;20766;-77
2022/03/10 12:57:38;;;;;;;14.13;13.33;;;19.00;30.00;;;;;;5028147;28;20452;-77
2022/03/10 13:00:18;;;;;;;13.90;13.17;;;18.60;30.50;;;;;;5028196;28;20452;-76
2022/03/10 13:02:45;;;;;;;12.60;11.97;;;19.20;30.70;;;;;;5028102;28;20522;-76
2022/03/10 13:05:14;;;;;;;13.47;12.60;;;19.70;30.60;;;;;;5028016;28;20445;-76
2022/03/10 13:07:41;;;;;;;13.97;13.10;;;19.90;30.10;;;;;;5028042;28;20493;-76
2022/03/10 13:10:11;;;;;;;14.30;13.00;;;19.40;30.00;;;;;;5027763;28;20504;-76
2022/03/10 13:12:39;;;;;;;13.80;13.10;;;20.00;29.90;;;;;;5027867;28;20460;-76
2022/03/10 13:15:07;;;;;;;13.83;13.03;;;18.70;30.40;;;;;;5027837;28;20523;-76
2022/03/10 13:17:36;;;;;;;14.37;13.47;;;19.10;30.00;;;;;;5028039;28;20449;-76
2022/03/10 13:20:09;;;;;;;14.13;13.13;;;19.10;30.00;;;;;;5027973;28;20457;-77
2022/03/10 13:22:38;;;;;;;14.40;13.60;;;18.60;30.00;;;;;;5027660;28;20492;-77
2022/03/10 13:25:05;;;;;;;14.53;13.73;;;18.70;30.10;;;;;;5027644;28;20461;-76
2022/03/10 13:27:34;;;;;;;13.83;13.13;;;19.10;29.90;;;;;;5028046;28;20453;-76
2022/03/10 13:30:00;;;;;;;14.00;13.30;;;19.30;29.50;;;;;;5027848;28;20482;-76
2022/03/10 13:32:31;;;;;;;15.80;13.67;;;19.30;29.80;;;;;;5027485;28;20445;-75
2022/03/10 13:35:01;;;;;;;14.43;13.43;;;19.50;29.40;;;;;;5027182;28;20893;-76
2022/03/10 13:37:28;;;;;;;14.40;13.43;;;18.80;27.90;;;;;;5027720;28;20478;-75
2022/03/10 13:39:57;;;;;;;15.93;14.83;;;18.30;28.60;;;;;;5027399;28;20446;-75
2022/03/10 13:42:31;;;;;;;13.93;13.00;;;18.00;29.60;;;;;;5027480;28;20462;-75
2022/03/10 13:45:06;;;;;;;13.93;13.03;;;17.30;30.40;;;;;;5027645;28;20458;-76
2022/03/10 13:47:50;;;;;;;14.63;13.83;;;17.40;30.10;;;;;;5027606;28;20463;-76
2022/03/10 13:50:19;;;;;;;13.93;13.23;;;17.70;29.40;;;;;;5027503;28;20491;-76
2022/03/10 13:52:46;;;;;;;14.63;13.60;;;17.50;29.60;;;;;;5027530;28;20485;-76
2022/03/10 13:55:14;;;;;;;13.87;13.07;;;18.10;29.60;;;;;;5027351;28;20962;-76
2022/03/10 13:57:44;;;;;;;13.10;12.33;;;18.10;29.50;;;;;;5027161;28;20457;-76
2022/03/10 14:00:12;;;;;;;14.07;13.20;;;17.30;29.20;;;;;;5027157;28;20449;-76
2022/03/10 14:02:48;;;;;;;13.90;13.00;;;16.70;29.30;;;;;;5026970;28;20483;-76
2022/03/10 14:05:16;;;;;;;12.77;12.07;;;16.10;29.40;;;;;;5027171;28;20445;-75
2022/03/10 14:07:51;;;;;;;13.73;12.20;;;15.40;29.40;;;;;;5027181;28;20816;-76
2022/03/10 14:10:28;;;;;;;11.90;11.00;;;15.30;30.00;;;;;;5027093;28;20804;-76
2022/03/10 14:12:54;;;;;;;10.60;9.90;;;15.10;30.40;;;;;;5026888;28;20928;-75
2022/03/10 14:15:26;;;;;;;10.60;9.90;;;15.10;30.40;;;;;;5026906;28;20457;-75
2022/03/10 14:17:56;;;;;;;11.30;10.57;;;15.00;30.20;;;;;;5026751;28;20461;-76
2022/03/10 14:20:40;;;;;;;11.10;10.40;;;15.00;30.00;;;;;;5026980;28;20857;-76
2022/03/10 14:23:06;;;;;;;12.80;12.10;;;15.00;30.10;;;;;;5026947;28;20705;-75
2022/03/10 14:25:40;;;;;;;13.10;12.40;;;15.10;30.60;;;;;;5027029;28;20454;-77
2022/03/10 14:28:08;;;;;;;12.77;11.97;;;15.30;30.60;;;;;;5027005;28;20446;-77
2022/03/10 14:30:37;;;;;;;13.57;12.67;;;15.20;29.40;;;;;;5026954;28;20746;-77
2022/03/10 14:33:04;;;;;;;12.90;12.00;;;15.10;29.10;;;;;;5027042;28;20485;-77
2022/03/10 14:35:31;;;;;;;12.60;11.90;;;15.20;29.20;;;;;;5026940;28;20482;-76
2022/03/10 14:37:57;;;;;;;13.70;12.60;;;15.10;29.20;;;;;;5026750;28;20446;-77
2022/03/10 14:40:24;;;;;;;12.53;11.83;;;15.00;29.20;;;;;;5026758;28;20464;-74
2022/03/10 14:42:52;;;;;;;11.97;11.27;;;15.00;29.10;;;;;;5026707;28;20461;-75
2022/03/10 14:45:19;;;;;;;11.60;10.90;;;15.00;29.10;;;;;;5026805;28;20479;-76
2022/03/10 14:47:46;;;;;;;11.30;10.60;;;15.10;28.40;;;;;;5030188;28;20469;-75
2022/03/10 14:50:13;;;;;;;11.80;11.10;;;15.10;27.90;;;;;;5030120;28;20477;-76
2022/03/10 14:52:41;;;;;;;12.20;11.40;;;15.10;27.90;;;;;;5030076;28;20792;-75
2022/03/10 14:55:09;;;;;;;11.83;11.10;;;15.10;28.00;;;;;;5029944;28;20454;-75
2022/03/10 14:57:36;;;;;;;13.07;12.20;;;15.10;28.60;;;;;;5029825;28;20453;-75
2022/03/10 15:00:08;;;;;;;12.77;11.97;;;15.10;29.20;;;;;;5029892;28;20457;-75
2022/03/10 15:02:35;;;;;;;13.10;12.10;;;15.10;29.30;;;;;;5029594;28;20968;-74
2022/03/10 15:05:02;;;;;;;14.20;12.73;;;15.10;29.80;;;;;;5030034;28;20501;-75
2022/03/10 15:07:29;;;;;;;15.30;12.27;;;15.10;29.90;;;;;;5030244;28;20441;-75
2022/03/10 15:09:56;;;;;;;12.60;11.67;;;15.10;29.30;;;;;;5029612;28;20477;-74
2022/03/10 15:12:22;;;;;;;12.53;11.30;;;15.10;29.10;;;;;;5029635;28;20489;-75
2022/03/10 15:14:49;;;;;;;11.83;11.13;;;15.10;28.90;;;;;;5029714;28;20455;-75
2022/03/10 15:17:18;;;;;;;11.83;11.13;;;15.20;28.70;;;;;;5029932;28;20454;-75
2022/03/10 15:19:45;;;;;;;12.07;11.37;;;15.10;28.30;;;;;;5029934;28;20817;-75
2022/03/10 15:22:12;;;;;;;12.13;11.40;;;15.10;28.60;;;;;;5029546;28;20450;-75
2022/03/10 15:24:39;;;;;;;12.47;11.60;;;15.10;28.50;;;;;;5029462;28;20445;-75
2022/03/10 15:27:05;;;;;;;12.00;11.30;;;15.00;28.30;;;;;;5029582;28;20460;-74
2022/03/10 15:29:33;;;;;;;12.70;11.90;;;15.00;28.50;;;;;;5029624;28;20476;-75
2022/03/10 15:32:00;;;;;;;12.37;11.43;;;14.90;28.80;;;;;;5029494;28;20528;-75
2022/03/10 15:34:28;;;;;;;12.97;12.07;;;14.90;29.00;;;;;;5029323;28;20453;-74
2022/03/10 15:36:55;;;;;;;12.43;11.60;;;14.90;29.60;;;;;;5029233;28;20461;-74
2022/03/10 15:39:22;;;;;;;11.80;11.10;;;14.90;29.30;;;;;;5029377;28;20454;-76
2022/03/10 15:41:48;;;;;;;12.70;11.90;;;14.90;28.80;;;;;;5029542;28;20449;-74
2022/03/10 15:44:15;;;;;;;12.47;11.67;;;14.90;29.50;;;;;;5029707;28;20453;-74
2022/03/10 15:46:42;;;;;;;12.13;11.33;;;14.90;29.30;;;;;;5028945;28;20452;-76
2022/03/10 15:49:10;;;;;;;11.77;11.07;;;14.80;29.70;;;;;;5029074;28;20450;-74
2022/03/10 15:51:39;;;;;;;13.07;12.17;;;14.80;29.60;;;;;;5029168;28;21093;-75
2022/03/10 15:54:05;;;;;;;12.77;11.87;;;14.70;28.60;;;;;;5028939;28;20452;-76
2022/03/10 15:56:32;;;;;;;12.60;11.70;;;14.80;28.60;;;;;;5029112;28;20457;-76
2022/03/10 15:58:59;;;;;;;12.70;11.90;;;14.70;28.90;;;;;;5029115;28;20458;-75
2022/03/10 16:01:25;;;;;;;13.40;12.40;;;14.70;28.60;;;;;;5028658;28;20473;-75
2022/03/10 16:03:52;;;;;;;13.97;13.07;;;14.60;27.50;;;;;;5028944;28;20449;-74
2022/03/10 16:06:19;;;;;;;16.70;13.00;;;14.60;28.10;;;;;;5028966;28;20523;-75
2022/03/10 16:08:47;;;;;;;13.90;13.10;;;14.60;28.80;;;;;;5029069;28;20457;-76
2022/03/10 16:11:14;;;;;;;13.17;12.10;;;14.50;29.10;;;;;;5028724;28;20504;-75
2022/03/10 16:13:41;;;;;;;14.03;13.07;;;14.50;30.10;;;;;;5028807;28;20450;-76
2022/03/10 16:16:08;;;;;;;15.47;14.00;;;14.40;30.40;;;;;;5028765;28;20585;-76
2022/03/10 16:18:35;;;;;;;15.17;14.17;;;14.40;30.90;;;;;;5028883;28;20458;-76
2022/03/10 16:21:01;;;;;;;13.77;12.80;;;14.30;30.40;;;;;;5028938;28;20494;-76
2022/03/10 16:23:28;;;;;;;15.13;14.03;;;14.30;29.90;;;;;;5028562;28;20461;-76
2022/03/10 16:25:56;;;;;;;13.13;12.37;;;14.20;30.00;;;;;;5028591;28;20523;-76
2022/03/10 16:28:23;;;;;;;13.77;12.67;;;14.20;30.40;;;;;;5028489;28;20474;-76
2022/03/10 16:30:52;;;;;;;14.37;13.47;;;14.10;30.70;;;;;;5028281;28;20488;-76
2022/03/10 16:33:18;;;;;;;13.87;12.97;;;14.10;31.00;;;;;;5028656;28;20805;-76
2022/03/10 16:35:45;;;;;;;13.97;13.07;;;14.00;31.20;;;;;;5028502;28;20528;-76
2022/03/10 16:38:14;;;;;;;15.00;13.77;;;14.00;31.70;;;;;;5028597;28;20470;-76
2022/03/10 16:40:41;;;;;;;13.83;13.03;;;13.90;32.10;;;;;;5028365;28;20493;-77
2022/03/10 16:43:09;;;;;;;14.50;13.50;;;13.80;32.30;;;;;;5028378;28;20446;-76
2022/03/10 16:45:35;;;;;;;15.10;14.00;;;13.80;32.70;;;;;;5028094;28;20932;-76
2022/03/10 16:48:02;;;;;;;15.30;14.10;;;13.70;32.00;;;;;;5028347;28;20793;-76
2022/03/10 16:50:29;;;;;;;14.23;13.30;;;13.70;32.40;;;;;;5028235;28;20456;-73
2022/03/10 16:52:56;;;;;;;14.90;13.87;;;13.60;32.50;;;;;;5027908;28;20497;-76
2022/03/10 16:55:23;;;;;;;14.53;13.60;;;13.50;32.80;;;;;;5027999;28;20460;-75
2022/03/10 16:57:49;;;;;;;15.67;14.27;;;13.40;33.20;;;;;;5027865;28;20450;-74
2022/03/10 17:00:18;;;;;;;14.80;13.90;;;13.30;33.60;;;;;;5028089;28;20932;-75
2022/03/10 17:02:45;;;;;;;15.20;14.20;;;13.30;33.80;;;;;;5028003;28;20474;-75
2022/03/10 17:05:12;;;;;;;14.10;13.10;;;13.20;33.90;;;;;;5028011;28;20452;-75
2022/03/10 17:07:39;;;;;;;13.40;12.60;;;13.20;34.20;;;;;;5027742;28;20502;-75
2022/03/10 17:10:06;;;;;;;14.43;13.33;;;13.10;34.40;;;;;;5027005;28;20482;-75
2022/03/10 17:12:33;;;;;;;14.50;13.47;;;13.10;34.40;;;;;;5027639;28;20485;-75
2022/03/10 17:15:00;;;;;;;15.67;14.53;;;13.00;34.60;;;;;;5027938;28;20457;-74
2022/03/10 17:17:28;;;;;;;14.20;13.30;;;12.90;34.70;;;;;;5027772;28;20971;-75
2022/03/10 17:19:54;;;;;;;13.90;13.13;;;12.80;34.40;;;;;;5027591;28;20450;-75
2022/03/10 17:22:22;;;;;;;14.37;13.43;;;12.70;34.50;;;;;;5027457;28;20454;-75
2022/03/10 17:24:49;;;;;;;14.07;13.17;;;12.70;35.00;;;;;;5027488;28;20557;-76
2022/03/10 17:27:17;;;;;;;13.50;12.40;;;12.50;34.80;;;;;;5027780;28;20465;-75
2022/03/10 17:29:44;;;;;;;13.93;13.00;;;12.40;35.30;;;;;;5027857;28;20544;-75
2022/03/10 17:32:11;;;;;;;13.07;12.17;;;12.30;35.20;;;;;;5027495;28;20489;-76
2022/03/10 17:34:39;;;;;;;12.70;11.80;;;12.30;35.40;;;;;;5027491;28;20787;-76
2022/03/10 17:37:06;;;;;;;14.23;12.73;;;12.20;35.10;;;;;;5027363;28;20460;-75
2022/03/10 17:39:33;;;;;;;14.00;13.10;;;12.10;35.50;;;;;;5027537;28;20449;-76
2022/03/10 17:42:00;;;;;;;13.97;13.07;;;12.10;35.70;;;;;;5027758;28;20520;-76
2022/03/10 17:44:26;;;;;;;16.60;12.53;;;11.90;35.70;;;;;;5027478;28;20450;-74
2022/03/10 17:46:54;;;;;;;12.40;11.50;;;11.70;36.00;;;;;;5027195;28;20457;-76
2022/03/10 17:49:21;;;;;;;12.40;11.60;;;11.50;36.60;;;;;;5027136;28;20550;-76
2022/03/10 17:51:49;;;;;;;11.67;10.87;;;11.30;37.00;;;;;;5027358;28;20498;-76
2022/03/10 17:54:15;;;;;;;12.47;11.40;;;11.20;36.80;;;;;;5027415;28;20473;-76
2022/03/10 17:56:42;;;;;;;13.53;12.50;;;11.20;36.80;;;;;;5027211;28;20454;-75
